DRZG weather

Goure Airport
Goure, Zinder Region, Niger

Public forecast

Using degrees Celsius for public forecast. Weather courtesy of forecast.io.

METAR (pilot weather report)

Report is more than 6 hours old.

Retrieved 2010/01/05 05:20 UTC (9 years ago):

DRZG 050520Z 04004KT 3000 DU NSC

TAF (pilot weather forecast)

Forecast is more than 12 hours old.

Closest forecast is Zinder Airport, 76.3 nm (141.2 km) W. Retrieved 2019/02/20 00:21 UTC (1 day ago):

TAF DRZR 202300Z 2100/2124 06008KT 2500 DU NSC BECMG 2101/2103 3500 DU BECMG 2110/2112 6000 NSW